sensor_id;sensor_type;location;lat;lon;timestamp;P1;durP1;ratioP1;P2;durP2;ratioP2
18623;SDS011;9441;51.420;7.036;2023-06-24T00:00:33;16.33;;;6.50;;
18623;SDS011;9441;51.420;7.036;2023-06-24T00:01:37;13.98;;;6.95;;
18623;SDS011;9441;51.420;7.036;2023-06-24T00:02:38;9.82;;;7.00;;
18623;SDS011;9441;51.420;7.036;2023-06-24T00:03:43;15.23;;;7.05;;
18623;SDS011;9441;51.420;7.036;2023-06-24T00:04:47;15.35;;;6.57;;
18623;SDS011;9441;51.420;7.036;2023-06-24T00:05:49;11.63;;;6.63;;
18623;SDS011;9441;51.420;7.036;2023-06-24T00:06:52;11.73;;;6.78;;
18623;SDS011;9441;51.420;7.036;2023-06-24T00:07:59;10.75;;;6.35;;
18623;SDS011;9441;51.420;7.036;2023-06-24T00:09:02;11.50;;;6.57;;
18623;SDS011;9441;51.420;7.036;2023-06-24T00:10:05;9.32;;;6.80;;
18623;SDS011;9441;51.420;7.036;2023-06-24T00:11:07;16.00;;;6.72;;
18623;SDS011;9441;51.420;7.036;2023-06-24T00:12:09;12.27;;;7.18;;
18623;SDS011;9441;51.420;7.036;2023-06-24T00:13:11;8.27;;;6.55;;
18623;SDS011;9441;51.420;7.036;2023-06-24T00:14:13;8.38;;;6.45;;
18623;SDS011;9441;51.420;7.036;2023-06-24T00:15:16;13.45;;;6.50;;
18623;SDS011;9441;51.420;7.036;2023-06-24T00:16:18;13.02;;;6.68;;
18623;SDS011;9441;51.420;7.036;2023-06-24T00:17:26;11.45;;;7.07;;
18623;SDS011;9441;51.420;7.036;2023-06-24T00:18:28;10.77;;;6.60;;
18623;SDS011;9441;51.420;7.036;2023-06-24T00:19:30;18.15;;;6.97;;
18623;SDS011;9441;51.420;7.036;2023-06-24T00:20:32;8.68;;;6.47;;
18623;SDS011;9441;51.420;7.036;2023-06-24T00:21:34;13.10;;;6.88;;
18623;SDS011;9441;51.420;7.036;2023-06-24T00:22:39;16.88;;;6.35;;
18623;SDS011;9441;51.420;7.036;2023-06-24T00:23:44;12.95;;;6.80;;
18623;SDS011;9441;51.420;7.036;2023-06-24T00:24:45;14.88;;;6.97;;
18623;SDS011;9441;51.420;7.036;2023-06-24T00:25:48;8.95;;;6.55;;
18623;SDS011;9441;51.420;7.036;2023-06-24T00:26:49;11.57;;;6.68;;
18623;SDS011;9441;51.420;7.036;2023-06-24T00:27:51;14.52;;;7.28;;
18623;SDS011;9441;51.420;7.036;2023-06-24T00:28:53;15.20;;;6.60;;
18623;SDS011;9441;51.420;7.036;2023-06-24T00:29:55;14.88;;;6.90;;
18623;SDS011;9441;51.420;7.036;2023-06-24T00:30:57;9.73;;;6.50;;
18623;SDS011;9441;51.420;7.036;2023-06-24T00:31:59;14.52;;;6.50;;
18623;SDS011;9441;51.420;7.036;2023-06-24T00:33:00;11.40;;;6.95;;
18623;SDS011;9441;51.420;7.036;2023-06-24T00:34:04;10.98;;;6.72;;
18623;SDS011;9441;51.420;7.036;2023-06-24T00:35:06;11.15;;;6.68;;
18623;SDS011;9441;51.420;7.036;2023-06-24T00:36:08;11.50;;;6.13;;
18623;SDS011;9441;51.420;7.036;2023-06-24T00:37:12;16.33;;;6.97;;
18623;SDS011;9441;51.420;7.036;2023-06-24T00:38:16;10.07;;;6.82;;
18623;SDS011;9441;51.420;7.036;2023-06-24T00:39:17;16.08;;;6.30;;
18623;SDS011;9441;51.420;7.036;2023-06-24T00:40:19;20.02;;;6.50;;
18623;SDS011;9441;51.420;7.036;2023-06-24T00:41:20;11.35;;;6.22;;
18623;SDS011;9441;51.420;7.036;2023-06-24T00:42:23;14.38;;;6.70;;
18623;SDS011;9441;51.420;7.036;2023-06-24T00:43:24;10.88;;;6.35;;
18623;SDS011;9441;51.420;7.036;2023-06-24T00:44:27;12.43;;;6.20;;
18623;SDS011;9441;51.420;7.036;2023-06-24T00:45:28;8.32;;;6.28;;
18623;SDS011;9441;51.420;7.036;2023-06-24T00:46:31;11.93;;;6.57;;
18623;SDS011;9441;51.420;7.036;2023-06-24T00:47:33;11.00;;;6.82;;
18623;SDS011;9441;51.420;7.036;2023-06-24T00:48:36;13.15;;;6.82;;
18623;SDS011;9441;51.420;7.036;2023-06-24T00:49:37;13.65;;;6.78;;
18623;SDS011;9441;51.420;7.036;2023-06-24T00:50:39;12.65;;;7.18;;
18623;SDS011;9441;51.420;7.036;2023-06-24T00:51:45;23.58;;;6.43;;
18623;SDS011;9441;51.420;7.036;2023-06-24T00:52:50;10.73;;;6.22;;
18623;SDS011;9441;51.420;7.036;2023-06-24T00:53:53;12.32;;;6.60;;
18623;SDS011;9441;51.420;7.036;2023-06-24T00:54:55;9.98;;;6.13;;
18623;SDS011;9441;51.420;7.036;2023-06-24T00:55:56;10.93;;;6.55;;
18623;SDS011;9441;51.420;7.036;2023-06-24T00:57:03;9.75;;;6.38;;
18623;SDS011;9441;51.420;7.036;2023-06-24T00:58:04;14.32;;;6.65;;
18623;SDS011;9441;51.420;7.036;2023-06-24T00:59:07;14.20;;;6.60;;
18623;SDS011;9441;51.420;7.036;2023-06-24T01:00:09;9.13;;;6.07;;
18623;SDS011;9441;51.420;7.036;2023-06-24T01:01:15;10.57;;;6.25;;
18623;SDS011;9441;51.420;7.036;2023-06-24T01:02:17;8.02;;;6.68;;
18623;SDS011;9441;51.420;7.036;2023-06-24T01:03:19;10.48;;;6.32;;
18623;SDS011;9441;51.420;7.036;2023-06-24T01:04:21;8.63;;;6.22;;
18623;SDS011;9441;51.420;7.036;2023-06-24T01:05:25;13.73;;;6.85;;
18623;SDS011;9441;51.420;7.036;2023-06-24T01:06:27;11.82;;;6.22;;
18623;SDS011;9441;51.420;7.036;2023-06-24T01:07:30;10.52;;;7.13;;
18623;SDS011;9441;51.420;7.036;2023-06-24T01:08:32;9.88;;;5.82;;
18623;SDS011;9441;51.420;7.036;2023-06-24T01:09:36;9.65;;;6.70;;
18623;SDS011;9441;51.420;7.036;2023-06-24T01:10:37;12.05;;;6.28;;
18623;SDS011;9441;51.420;7.036;2023-06-24T01:11:40;10.05;;;6.45;;
18623;SDS011;9441;51.420;7.036;2023-06-24T01:12:41;8.82;;;5.97;;
18623;SDS011;9441;51.420;7.036;2023-06-24T01:13:44;9.05;;;6.07;;
18623;SDS011;9441;51.420;7.036;2023-06-24T01:14:45;11.15;;;6.28;;
18623;SDS011;9441;51.420;7.036;2023-06-24T01:15:48;10.75;;;6.75;;
18623;SDS011;9441;51.420;7.036;2023-06-24T01:16:51;12.60;;;6.35;;
18623;SDS011;9441;51.420;7.036;2023-06-24T01:17:57;8.95;;;6.65;;
18623;SDS011;9441;51.420;7.036;2023-06-24T01:19:00;12.68;;;6.40;;
18623;SDS011;9441;51.420;7.036;2023-06-24T01:20:08;11.60;;;6.45;;
18623;SDS011;9441;51.420;7.036;2023-06-24T01:21:18;15.13;;;6.63;;
18623;SDS011;9441;51.420;7.036;2023-06-24T01:22:33;10.75;;;6.38;;
18623;SDS011;9441;51.420;7.036;2023-06-24T01:23:49;12.10;;;6.15;;
18623;SDS011;9441;51.420;7.036;2023-06-24T01:24:59;8.30;;;6.72;;
18623;SDS011;9441;51.420;7.036;2023-06-24T01:26:20;12.25;;;6.38;;
18623;SDS011;9441;51.420;7.036;2023-06-24T01:27:32;16.17;;;6.55;;
18623;SDS011;9441;51.420;7.036;2023-06-24T01:28:46;8.63;;;6.78;;
18623;SDS011;9441;51.420;7.036;2023-06-24T01:30:04;17.10;;;6.60;;
18623;SDS011;9441;51.420;7.036;2023-06-24T01:31:24;12.07;;;6.80;;
18623;SDS011;9441;51.420;7.036;2023-06-24T01:32:31;14.27;;;6.80;;
18623;SDS011;9441;51.420;7.036;2023-06-24T01:33:36;10.98;;;5.93;;
18623;SDS011;9441;51.420;7.036;2023-06-24T01:34:42;18.17;;;6.47;;
18623;SDS011;9441;51.420;7.036;2023-06-24T01:35:45;8.07;;;6.15;;
18623;SDS011;9441;51.420;7.036;2023-06-24T01:36:52;11.25;;;7.00;;
18623;SDS011;9441;51.420;7.036;2023-06-24T01:37:54;11.27;;;6.90;;
18623;SDS011;9441;51.420;7.036;2023-06-24T01:39:01;11.35;;;6.15;;
18623;SDS011;9441;51.420;7.036;2023-06-24T01:40:04;16.30;;;6.88;;
18623;SDS011;9441;51.420;7.036;2023-06-24T01:41:10;11.90;;;6.35;;
18623;SDS011;9441;51.420;7.036;2023-06-24T01:42:13;12.60;;;6.47;;
18623;SDS011;9441;51.420;7.036;2023-06-24T01:43:16;10.15;;;6.25;;
18623;SDS011;9441;51.420;7.036;2023-06-24T01:44:19;8.63;;;6.25;;
18623;SDS011;9441;51.420;7.036;2023-06-24T01:45:23;16.42;;;6.97;;
18623;SDS011;9441;51.420;7.036;2023-06-24T01:46:25;8.93;;;6.90;;
18623;SDS011;9441;51.420;7.036;2023-06-24T01:47:29;12.13;;;6.45;;
18623;SDS011;9441;51.420;7.036;2023-06-24T01:48:32;9.57;;;6.32;;
18623;SDS011;9441;51.420;7.036;2023-06-24T01:49:34;11.00;;;6.85;;
18623;SDS011;9441;51.420;7.036;2023-06-24T01:50:39;10.60;;;6.38;;
18623;SDS011;9441;51.420;7.036;2023-06-24T01:51:42;8.82;;;6.63;;
18623;SDS011;9441;51.420;7.036;2023-06-24T01:52:46;13.13;;;6.57;;
18623;SDS011;9441;51.420;7.036;2023-06-24T01:53:49;10.82;;;6.40;;
18623;SDS011;9441;51.420;7.036;2023-06-24T01:54:52;12.93;;;6.80;;
18623;SDS011;9441;51.420;7.036;2023-06-24T01:55:59;13.07;;;6.78;;
18623;SDS011;9441;51.420;7.036;2023-06-24T01:57:01;10.57;;;6.13;;
18623;SDS011;9441;51.420;7.036;2023-06-24T01:58:04;15.25;;;6.75;;
18623;SDS011;9441;51.420;7.036;2023-06-24T01:59:07;12.10;;;7.20;;
18623;SDS011;9441;51.420;7.036;2023-06-24T02:00:10;11.48;;;6.57;;
18623;SDS011;9441;51.420;7.036;2023-06-24T02:01:25;16.70;;;6.72;;
18623;SDS011;9441;51.420;7.036;2023-06-24T02:02:29;10.95;;;6.72;;
18623;SDS011;9441;51.420;7.036;2023-06-24T02:03:31;15.93;;;6.60;;
18623;SDS011;9441;51.420;7.036;2023-06-24T02:04:34;9.30;;;6.97;;
18623;SDS011;9441;51.420;7.036;2023-06-24T02:05:36;12.70;;;6.93;;
18623;SDS011;9441;51.420;7.036;2023-06-24T02:06:40;8.98;;;6.75;;
18623;SDS011;9441;51.420;7.036;2023-06-24T02:07:42;11.65;;;6.55;;
18623;SDS011;9441;51.420;7.036;2023-06-24T02:08:45;10.45;;;6.47;;
18623;SDS011;9441;51.420;7.036;2023-06-24T02:09:48;9.70;;;7.22;;
18623;SDS011;9441;51.420;7.036;2023-06-24T02:10:51;12.32;;;6.85;;
18623;SDS011;9441;51.420;7.036;2023-06-24T02:11:53;11.48;;;6.90;;
18623;SDS011;9441;51.420;7.036;2023-06-24T02:12:55;10.80;;;6.35;;
18623;SDS011;9441;51.420;7.036;2023-06-24T02:13:59;14.35;;;7.20;;
18623;SDS011;9441;51.420;7.036;2023-06-24T02:15:03;13.52;;;7.05;;
18623;SDS011;9441;51.420;7.036;2023-06-24T02:16:07;9.75;;;7.20;;
18623;SDS011;9441;51.420;7.036;2023-06-24T02:17:12;11.07;;;6.85;;
18623;SDS011;9441;51.420;7.036;2023-06-24T02:18:14;12.50;;;6.88;;
18623;SDS011;9441;51.420;7.036;2023-06-24T02:19:17;13.35;;;6.85;;
18623;SDS011;9441;51.420;7.036;2023-06-24T02:20:19;9.55;;;6.95;;
18623;SDS011;9441;51.420;7.036;2023-06-24T02:21:22;12.50;;;6.95;;
18623;SDS011;9441;51.420;7.036;2023-06-24T02:22:24;11.38;;;6.43;;
18623;SDS011;9441;51.420;7.036;2023-06-24T02:23:27;13.88;;;7.10;;
18623;SDS011;9441;51.420;7.036;2023-06-24T02:24:28;13.25;;;6.65;;
18623;SDS011;9441;51.420;7.036;2023-06-24T02:25:31;13.00;;;6.88;;
18623;SDS011;9441;51.420;7.036;2023-06-24T02:26:32;9.07;;;6.90;;
18623;SDS011;9441;51.420;7.036;2023-06-24T02:27:39;9.02;;;6.32;;
18623;SDS011;9441;51.420;7.036;2023-06-24T02:28:41;13.68;;;6.95;;
18623;SDS011;9441;51.420;7.036;2023-06-24T02:29:46;9.65;;;6.65;;
18623;SDS011;9441;51.420;7.036;2023-06-24T02:30:47;13.05;;;6.97;;
18623;SDS011;9441;51.420;7.036;2023-06-24T02:31:50;10.32;;;6.85;;
18623;SDS011;9441;51.420;7.036;2023-06-24T02:32:54;12.48;;;6.85;;
18623;SDS011;9441;51.420;7.036;2023-06-24T02:33:57;15.32;;;7.03;;
18623;SDS011;9441;51.420;7.036;2023-06-24T02:34:58;7.85;;;6.03;;
18623;SDS011;9441;51.420;7.036;2023-06-24T02:36:02;10.35;;;6.90;;
18623;SDS011;9441;51.420;7.036;2023-06-24T02:37:04;10.95;;;6.43;;
18623;SDS011;9441;51.420;7.036;2023-06-24T02:38:07;9.20;;;6.68;;
18623;SDS011;9441;51.420;7.036;2023-06-24T02:39:09;13.02;;;6.93;;
18623;SDS011;9441;51.420;7.036;2023-06-24T02:40:12;10.27;;;6.45;;
18623;SDS011;9441;51.420;7.036;2023-06-24T02:41:13;14.48;;;6.68;;
18623;SDS011;9441;51.420;7.036;2023-06-24T02:42:16;14.63;;;6.80;;
18623;SDS011;9441;51.420;7.036;2023-06-24T02:43:17;12.40;;;6.53;;
18623;SDS011;9441;51.420;7.036;2023-06-24T02:44:20;12.63;;;6.70;;
18623;SDS011;9441;51.420;7.036;2023-06-24T02:45:21;11.93;;;6.68;;
18623;SDS011;9441;51.420;7.036;2023-06-24T02:46:24;8.77;;;6.97;;
18623;SDS011;9441;51.420;7.036;2023-06-24T02:47:29;13.55;;;6.53;;
18623;SDS011;9441;51.420;7.036;2023-06-24T02:48:33;11.63;;;6.45;;
18623;SDS011;9441;51.420;7.036;2023-06-24T02:49:36;11.40;;;6.93;;
18623;SDS011;9441;51.420;7.036;2023-06-24T02:50:39;14.20;;;6.97;;
18623;SDS011;9441;51.420;7.036;2023-06-24T02:51:41;12.10;;;6.78;;
18623;SDS011;9441;51.420;7.036;2023-06-24T02:52:44;12.13;;;6.78;;
18623;SDS011;9441;51.420;7.036;2023-06-24T02:53:47;15.00;;;6.97;;
18623;SDS011;9441;51.420;7.036;2023-06-24T02:54:52;11.40;;;6.72;;
18623;SDS011;9441;51.420;7.036;2023-06-24T02:56:16;13.43;;;7.32;;
18623;SDS011;9441;51.420;7.036;2023-06-24T02:57:21;18.15;;;7.03;;
18623;SDS011;9441;51.420;7.036;2023-06-24T02:58:43;14.38;;;6.43;;
18623;SDS011;9441;51.420;7.036;2023-06-24T02:59:53;13.82;;;6.82;;
18623;SDS011;9441;51.420;7.036;2023-06-24T03:00:58;9.10;;;6.53;;
18623;SDS011;9441;51.420;7.036;2023-06-24T03:02:07;11.48;;;6.80;;
18623;SDS011;9441;51.420;7.036;2023-06-24T03:03:09;9.20;;;6.47;;
18623;SDS011;9441;51.420;7.036;2023-06-24T03:04:23;9.50;;;6.38;;
18623;SDS011;9441;51.420;7.036;2023-06-24T03:05:26;12.70;;;7.10;;
18623;SDS011;9441;51.420;7.036;2023-06-24T03:06:29;7.88;;;6.20;;
18623;SDS011;9441;51.420;7.036;2023-06-24T03:07:37;10.77;;;6.80;;
18623;SDS011;9441;51.420;7.036;2023-06-24T03:08:39;9.52;;;6.50;;
18623;SDS011;9441;51.420;7.036;2023-06-24T03:09:43;14.52;;;7.35;;
18623;SDS011;9441;51.420;7.036;2023-06-24T03:10:44;10.35;;;6.88;;
18623;SDS011;9441;51.420;7.036;2023-06-24T03:11:52;10.38;;;6.57;;
18623;SDS011;9441;51.420;7.036;2023-06-24T03:13:04;14.57;;;6.90;;
18623;SDS011;9441;51.420;7.036;2023-06-24T03:14:15;13.95;;;6.75;;
18623;SDS011;9441;51.420;7.036;2023-06-24T03:15:18;9.50;;;6.55;;
18623;SDS011;9441;51.420;7.036;2023-06-24T03:16:19;10.00;;;6.82;;
18623;SDS011;9441;51.420;7.036;2023-06-24T03:17:29;13.10;;;6.93;;
18623;SDS011;9441;51.420;7.036;2023-06-24T03:18:31;12.20;;;6.68;;
18623;SDS011;9441;51.420;7.036;2023-06-24T03:19:35;11.55;;;6.90;;
18623;SDS011;9441;51.420;7.036;2023-06-24T03:20:36;11.15;;;7.15;;
18623;SDS011;9441;51.420;7.036;2023-06-24T03:21:42;11.25;;;7.07;;
18623;SDS011;9441;51.420;7.036;2023-06-24T03:22:49;12.27;;;6.97;;
18623;SDS011;9441;51.420;7.036;2023-06-24T03:23:52;9.77;;;7.07;;
18623;SDS011;9441;51.420;7.036;2023-06-24T03:24:54;14.48;;;6.97;;
18623;SDS011;9441;51.420;7.036;2023-06-24T03:25:57;16.02;;;7.40;;
18623;SDS011;9441;51.420;7.036;2023-06-24T03:26:58;18.23;;;7.18;;
18623;SDS011;9441;51.420;7.036;2023-06-24T03:28:09;12.73;;;6.82;;
18623;SDS011;9441;51.420;7.036;2023-06-24T03:29:16;14.23;;;7.00;;
18623;SDS011;9441;51.420;7.036;2023-06-24T03:30:28;11.88;;;7.38;;
18623;SDS011;9441;51.420;7.036;2023-06-24T03:31:30;11.65;;;6.75;;
18623;SDS011;9441;51.420;7.036;2023-06-24T03:32:33;14.55;;;7.22;;
18623;SDS011;9441;51.420;7.036;2023-06-24T03:33:36;8.80;;;6.80;;
18623;SDS011;9441;51.420;7.036;2023-06-24T03:34:40;8.00;;;6.57;;
18623;SDS011;9441;51.420;7.036;2023-06-24T03:35:44;9.55;;;7.13;;
18623;SDS011;9441;51.420;7.036;2023-06-24T03:36:48;13.35;;;7.32;;
18623;SDS011;9441;51.420;7.036;2023-06-24T03:37:51;8.82;;;6.65;;
18623;SDS011;9441;51.420;7.036;2023-06-24T03:38:53;13.68;;;7.15;;
18623;SDS011;9441;51.420;7.036;2023-06-24T03:39:56;11.00;;;7.20;;
18623;SDS011;9441;51.420;7.036;2023-06-24T03:40:57;11.73;;;6.82;;
18623;SDS011;9441;51.420;7.036;2023-06-24T03:42:00;10.95;;;6.88;;
18623;SDS011;9441;51.420;7.036;2023-06-24T03:43:02;16.92;;;6.95;;
18623;SDS011;9441;51.420;7.036;2023-06-24T03:44:04;12.23;;;7.00;;
18623;SDS011;9441;51.420;7.036;2023-06-24T03:45:07;11.43;;;7.85;;
18623;SDS011;9441;51.420;7.036;2023-06-24T03:46:10;10.35;;;7.00;;
18623;SDS011;9441;51.420;7.036;2023-06-24T03:47:11;10.48;;;6.78;;
18623;SDS011;9441;51.420;7.036;2023-06-24T03:48:15;13.65;;;7.30;;
18623;SDS011;9441;51.420;7.036;2023-06-24T03:49:16;12.38;;;7.00;;
18623;SDS011;9441;51.420;7.036;2023-06-24T03:50:20;10.15;;;7.15;;
18623;SDS011;9441;51.420;7.036;2023-06-24T03:51:22;11.70;;;7.22;;
18623;SDS011;9441;51.420;7.036;2023-06-24T03:52:24;11.15;;;7.47;;
18623;SDS011;9441;51.420;7.036;2023-06-24T03:53:26;9.30;;;6.72;;
18623;SDS011;9441;51.420;7.036;2023-06-24T03:54:29;12.48;;;6.88;;
18623;SDS011;9441;51.420;7.036;2023-06-24T03:55:30;16.33;;;7.50;;
18623;SDS011;9441;51.420;7.036;2023-06-24T03:56:33;11.65;;;7.32;;
18623;SDS011;9441;51.420;7.036;2023-06-24T03:57:34;13.73;;;7.40;;
18623;SDS011;9441;51.420;7.036;2023-06-24T03:58:36;13.68;;;7.30;;
18623;SDS011;9441;51.420;7.036;2023-06-24T03:59:38;10.57;;;7.03;;
18623;SDS011;9441;51.420;7.036;2023-06-24T04:00:40;13.60;;;6.88;;
18623;SDS011;9441;51.420;7.036;2023-06-24T04:01:43;14.60;;;6.80;;
18623;SDS011;9441;51.420;7.036;2023-06-24T04:02:45;10.77;;;6.75;;
18623;SDS011;9441;51.420;7.036;2023-06-24T04:03:46;14.23;;;7.15;;
18623;SDS011;9441;51.420;7.036;2023-06-24T04:04:49;12.73;;;6.63;;
18623;SDS011;9441;51.420;7.036;2023-06-24T04:05:54;11.20;;;6.90;;
18623;SDS011;9441;51.420;7.036;2023-06-24T04:06:56;11.23;;;6.57;;
18623;SDS011;9441;51.420;7.036;2023-06-24T04:07:57;12.50;;;6.85;;
18623;SDS011;9441;51.420;7.036;2023-06-24T04:09:00;9.88;;;6.90;;
18623;SDS011;9441;51.420;7.036;2023-06-24T04:10:03;13.02;;;7.00;;
18623;SDS011;9441;51.420;7.036;2023-06-24T04:11:08;8.77;;;7.10;;
18623;SDS011;9441;51.420;7.036;2023-06-24T04:12:09;10.85;;;7.38;;
18623;SDS011;9441;51.420;7.036;2023-06-24T04:13:12;15.63;;;7.07;;
18623;SDS011;9441;51.420;7.036;2023-06-24T04:14:13;11.30;;;7.57;;
18623;SDS011;9441;51.420;7.036;2023-06-24T04:15:16;10.32;;;7.25;;
18623;SDS011;9441;51.420;7.036;2023-06-24T04:16:17;12.48;;;7.32;;
18623;SDS011;9441;51.420;7.036;2023-06-24T04:17:19;13.35;;;7.57;;
18623;SDS011;9441;51.420;7.036;2023-06-24T04:18:21;11.75;;;7.38;;
18623;SDS011;9441;51.420;7.036;2023-06-24T04:19:23;10.15;;;7.72;;
18623;SDS011;9441;51.420;7.036;2023-06-24T04:20:24;13.68;;;8.00;;
18623;SDS011;9441;51.420;7.036;2023-06-24T04:21:28;10.65;;;7.72;;
18623;SDS011;9441;51.420;7.036;2023-06-24T04:22:29;13.63;;;8.02;;
18623;SDS011;9441;51.420;7.036;2023-06-24T04:23:33;10.63;;;8.43;;
18623;SDS011;9441;51.420;7.036;2023-06-24T04:24:34;10.98;;;7.68;;
18623;SDS011;9441;51.420;7.036;2023-06-24T04:25:37;11.48;;;7.75;;
18623;SDS011;9441;51.420;7.036;2023-06-24T04:26:38;10.82;;;7.75;;
18623;SDS011;9441;51.420;7.036;2023-06-24T04:27:41;10.70;;;7.85;;
18623;SDS011;9441;51.420;7.036;2023-06-24T04:28:42;13.60;;;8.07;;
18623;SDS011;9441;51.420;7.036;2023-06-24T04:29:45;10.23;;;8.00;;
18623;SDS011;9441;51.420;7.036;2023-06-24T04:30:46;10.32;;;7.88;;
18623;SDS011;9441;51.420;7.036;2023-06-24T04:31:48;10.38;;;7.45;;
18623;SDS011;9441;51.420;7.036;2023-06-24T04:32:50;10.45;;;7.53;;
18623;SDS011;9441;51.420;7.036;2023-06-24T04:33:52;11.00;;;7.10;;
18623;SDS011;9441;51.420;7.036;2023-06-24T04:34:53;9.45;;;7.35;;
18623;SDS011;9441;51.420;7.036;2023-06-24T04:35:56;12.60;;;6.78;;
18623;SDS011;9441;51.420;7.036;2023-06-24T04:37:00;10.75;;;7.38;;
18623;SDS011;9441;51.420;7.036;2023-06-24T04:38:02;13.68;;;6.53;;
18623;SDS011;9441;51.420;7.036;2023-06-24T04:39:04;12.23;;;6.63;;
18623;SDS011;9441;51.420;7.036;2023-06-24T04:40:06;11.30;;;7.00;;
18623;SDS011;9441;51.420;7.036;2023-06-24T04:41:08;13.75;;;6.72;;
18623;SDS011;9441;51.420;7.036;2023-06-24T04:42:10;14.55;;;6.95;;
18623;SDS011;9441;51.420;7.036;2023-06-24T04:43:12;12.38;;;6.45;;
18623;SDS011;9441;51.420;7.036;2023-06-24T04:44:14;11.80;;;6.55;;
18623;SDS011;9441;51.420;7.036;2023-06-24T04:45:16;16.55;;;7.25;;
18623;SDS011;9441;51.420;7.036;2023-06-24T04:46:18;8.77;;;6.53;;
18623;SDS011;9441;51.420;7.036;2023-06-24T04:47:19;11.30;;;7.20;;
18623;SDS011;9441;51.420;7.036;2023-06-24T04:48:22;14.55;;;6.95;;
18623;SDS011;9441;51.420;7.036;2023-06-24T04:49:23;10.90;;;6.95;;
18623;SDS011;9441;51.420;7.036;2023-06-24T04:50:26;10.80;;;6.80;;
18623;SDS011;9441;51.420;7.036;2023-06-24T04:51:27;10.52;;;6.85;;
18623;SDS011;9441;51.420;7.036;2023-06-24T04:52:31;9.52;;;6.22;;
18623;SDS011;9441;51.420;7.036;2023-06-24T04:53:32;8.80;;;6.70;;
18623;SDS011;9441;51.420;7.036;2023-06-24T04:54:35;11.25;;;7.30;;
18623;SDS011;9441;51.420;7.036;2023-06-24T04:55:36;8.15;;;7.05;;
18623;SDS011;9441;51.420;7.036;2023-06-24T04:56:39;9.48;;;6.50;;
18623;SDS011;9441;51.420;7.036;2023-06-24T04:57:40;9.98;;;6.90;;
18623;SDS011;9441;51.420;7.036;2023-06-24T04:58:42;12.35;;;6.82;;
18623;SDS011;9441;51.420;7.036;2023-06-24T04:59:43;13.02;;;6.82;;
18623;SDS011;9441;51.420;7.036;2023-06-24T05:00:46;10.85;;;7.03;;
18623;SDS011;9441;51.420;7.036;2023-06-24T05:01:47;13.18;;;6.95;;
18623;SDS011;9441;51.420;7.036;2023-06-24T05:02:49;9.13;;;6.93;;
18623;SDS011;9441;51.420;7.036;2023-06-24T05:03:51;9.48;;;6.65;;
18623;SDS011;9441;51.420;7.036;2023-06-24T05:04:53;12.02;;;7.25;;
18623;SDS011;9441;51.420;7.036;2023-06-24T05:05:54;11.40;;;6.70;;
18623;SDS011;9441;51.420;7.036;2023-06-24T05:06:56;9.55;;;7.25;;
18623;SDS011;9441;51.420;7.036;2023-06-24T05:07:59;12.20;;;7.47;;
18623;SDS011;9441;51.420;7.036;2023-06-24T05:09:01;11.00;;;7.90;;
18623;SDS011;9441;51.420;7.036;2023-06-24T05:10:03;12.13;;;7.55;;
18623;SDS011;9441;51.420;7.036;2023-06-24T05:11:05;12.07;;;7.45;;
18623;SDS011;9441;51.420;7.036;2023-06-24T05:12:07;11.77;;;7.35;;
18623;SDS011;9441;51.420;7.036;2023-06-24T05:13:10;12.05;;;7.90;;
18623;SDS011;9441;51.420;7.036;2023-06-24T05:14:13;9.48;;;7.03;;
18623;SDS011;9441;51.420;7.036;2023-06-24T05:15:15;13.02;;;7.15;;
18623;SDS011;9441;51.420;7.036;2023-06-24T05:16:18;14.38;;;7.72;;
18623;SDS011;9441;51.420;7.036;2023-06-24T05:17:21;11.35;;;8.27;;
18623;SDS011;9441;51.420;7.036;2023-06-24T05:18:26;14.32;;;8.65;;
18623;SDS011;9441;51.420;7.036;2023-06-24T05:19:29;12.45;;;7.30;;
18623;SDS011;9441;51.420;7.036;2023-06-24T05:20:31;12.23;;;8.23;;
18623;SDS011;9441;51.420;7.036;2023-06-24T05:21:34;14.98;;;8.57;;
18623;SDS011;9441;51.420;7.036;2023-06-24T05:22:35;11.90;;;8.70;;
18623;SDS011;9441;51.420;7.036;2023-06-24T05:23:39;11.68;;;8.60;;
18623;SDS011;9441;51.420;7.036;2023-06-24T05:24:40;13.40;;;8.70;;
18623;SDS011;9441;51.420;7.036;2023-06-24T05:25:42;15.50;;;7.35;;
18623;SDS011;9441;51.420;7.036;2023-06-24T05:26:44;11.80;;;8.48;;
18623;SDS011;9441;51.420;7.036;2023-06-24T05:27:46;13.95;;;8.05;;
18623;SDS011;9441;51.420;7.036;2023-06-24T05:28:48;12.27;;;8.63;;
18623;SDS011;9441;51.420;7.036;2023-06-24T05:29:50;11.23;;;7.82;;
18623;SDS011;9441;51.420;7.036;2023-06-24T05:30:51;13.50;;;8.85;;
18623;SDS011;9441;51.420;7.036;2023-06-24T05:31:54;13.40;;;8.80;;
18623;SDS011;9441;51.420;7.036;2023-06-24T05:32:55;16.40;;;9.23;;
18623;SDS011;9441;51.420;7.036;2023-06-24T05:33:57;14.32;;;9.05;;
18623;SDS011;9441;51.420;7.036;2023-06-24T05:34:59;12.65;;;9.13;;
18623;SDS011;9441;51.420;7.036;2023-06-24T05:36:01;12.77;;;8.68;;
18623;SDS011;9441;51.420;7.036;2023-06-24T05:37:02;13.73;;;8.93;;
18623;SDS011;9441;51.420;7.036;2023-06-24T05:38:05;13.82;;;8.68;;
18623;SDS011;9441;51.420;7.036;2023-06-24T05:39:07;17.58;;;10.20;;
18623;SDS011;9441;51.420;7.036;2023-06-24T05:40:11;18.08;;;10.23;;
18623;SDS011;9441;51.420;7.036;2023-06-24T05:41:13;14.15;;;9.25;;
18623;SDS011;9441;51.420;7.036;2023-06-24T05:42:16;14.45;;;10.15;;
18623;SDS011;9441;51.420;7.036;2023-06-24T05:43:18;12.77;;;8.98;;
18623;SDS011;9441;51.420;7.036;2023-06-24T05:44:19;16.65;;;10.32;;
18623;SDS011;9441;51.420;7.036;2023-06-24T05:45:23;16.80;;;10.18;;
18623;SDS011;9441;51.420;7.036;2023-06-24T05:46:24;17.85;;;10.85;;
18623;SDS011;9441;51.420;7.036;2023-06-24T05:47:26;16.90;;;11.00;;
18623;SDS011;9441;51.420;7.036;2023-06-24T05:48:27;16.55;;;10.82;;
18623;SDS011;9441;51.420;7.036;2023-06-24T05:49:30;14.27;;;10.05;;
18623;SDS011;9441;51.420;7.036;2023-06-24T05:50:31;15.55;;;10.20;;
18623;SDS011;9441;51.420;7.036;2023-06-24T05:51:34;14.23;;;10.80;;
18623;SDS011;9441;51.420;7.036;2023-06-24T05:52:35;15.95;;;10.05;;
18623;SDS011;9441;51.420;7.036;2023-06-24T05:53:37;17.60;;;10.30;;
18623;SDS011;9441;51.420;7.036;2023-06-24T05:54:40;13.90;;;9.45;;
18623;SDS011;9441;51.420;7.036;2023-06-24T05:55:42;14.73;;;10.27;;
18623;SDS011;9441;51.420;7.036;2023-06-24T05:56:43;17.73;;;10.95;;
18623;SDS011;9441;51.420;7.036;2023-06-24T05:57:46;17.27;;;10.82;;
18623;SDS011;9441;51.420;7.036;2023-06-24T05:58:47;15.57;;;10.80;;
18623;SDS011;9441;51.420;7.036;2023-06-24T05:59:50;14.00;;;10.88;;
18623;SDS011;9441;51.420;7.036;2023-06-24T06:00:51;14.88;;;9.73;;
18623;SDS011;9441;51.420;7.036;2023-06-24T06:01:55;21.25;;;12.43;;
18623;SDS011;9441;51.420;7.036;2023-06-24T06:02:56;19.42;;;11.15;;
18623;SDS011;9441;51.420;7.036;2023-06-24T06:03:59;19.33;;;10.80;;
18623;SDS011;9441;51.420;7.036;2023-06-24T06:05:00;11.73;;;9.32;;
18623;SDS011;9441;51.420;7.036;2023-06-24T06:06:02;14.43;;;9.40;;
18623;SDS011;9441;51.420;7.036;2023-06-24T06:07:04;17.50;;;12.15;;
18623;SDS011;9441;51.420;7.036;2023-06-24T06:08:06;19.63;;;12.80;;
18623;SDS011;9441;51.420;7.036;2023-06-24T06:09:07;14.45;;;9.82;;
18623;SDS011;9441;51.420;7.036;2023-06-24T06:10:11;19.63;;;11.43;;
18623;SDS011;9441;51.420;7.036;2023-06-24T06:11:15;16.67;;;10.27;;
18623;SDS011;9441;51.420;7.036;2023-06-24T06:12:18;18.50;;;10.05;;
18623;SDS011;9441;51.420;7.036;2023-06-24T06:13:19;16.00;;;10.52;;
18623;SDS011;9441;51.420;7.036;2023-06-24T06:14:21;18.17;;;11.75;;
18623;SDS011;9441;51.420;7.036;2023-06-24T06:15:23;19.17;;;11.20;;
18623;SDS011;9441;51.420;7.036;2023-06-24T06:16:25;16.27;;;12.65;;
18623;SDS011;9441;51.420;7.036;2023-06-24T06:17:28;15.77;;;10.77;;
18623;SDS011;9441;51.420;7.036;2023-06-24T06:18:30;18.80;;;12.27;;
18623;SDS011;9441;51.420;7.036;2023-06-24T06:19:32;19.85;;;11.73;;
18623;SDS011;9441;51.420;7.036;2023-06-24T06:20:34;15.35;;;11.65;;
18623;SDS011;9441;51.420;7.036;2023-06-24T06:21:36;14.70;;;10.60;;